createdAt,value
2023-01-29T00:01:48.142Z,-3.22
2023-01-29T00:04:15.245Z,-3.24
2023-01-29T00:06:42.072Z,-3.18
2023-01-29T00:09:09.378Z,-3.17
2023-01-29T00:11:36.060Z,-3.24
2023-01-29T00:14:02.592Z,-3.28
2023-01-29T00:16:29.520Z,-3.30
2023-01-29T00:18:55.947Z,-3.33
2023-01-29T00:21:23.044Z,-3.34
2023-01-29T00:23:50.424Z,-3.36
2023-01-29T00:26:17.060Z,-3.33
2023-01-29T00:28:44.074Z,-3.21
2023-01-29T00:31:16.103Z,-3.29
2023-01-29T00:33:42.879Z,-3.19
2023-01-29T00:36:11.610Z,-3.33
2023-01-29T00:38:39.532Z,-3.42
2023-01-29T00:41:28.685Z,-3.41
2023-01-29T00:44:13.991Z,-3.28
2023-01-29T00:46:40.564Z,-3.41
2023-01-29T00:49:07.812Z,-3.38
2023-01-29T00:51:35.612Z,-3.43
2023-01-29T00:54:06.702Z,-3.52
2023-01-29T00:56:35.851Z,-3.52
2023-01-29T00:59:04.123Z,-3.62
2023-01-29T01:01:49.492Z,-3.67
2023-01-29T01:04:16.032Z,-3.58
2023-01-29T01:06:43.396Z,-3.47
2023-01-29T01:09:29.554Z,-3.49
2023-01-29T01:11:56.819Z,-3.53
2023-01-29T01:14:23.394Z,-3.59
2023-01-29T01:16:49.927Z,-3.66
2023-01-29T01:19:16.791Z,-3.60
2023-01-29T01:21:45.431Z,-3.53
2023-01-29T01:24:13.097Z,-3.48
2023-01-29T01:26:39.830Z,-3.33
2023-01-29T01:29:06.456Z,-3.24
2023-01-29T01:31:32.894Z,-3.30
2023-01-29T01:33:59.485Z,-3.34
2023-01-29T01:36:25.974Z,-3.35
2023-01-29T01:38:52.402Z,-3.52
2023-01-29T01:41:21.866Z,-3.67
2023-01-29T01:44:01.489Z,-3.72
2023-01-29T01:46:31.427Z,-3.66
2023-01-29T01:49:16.129Z,-3.69
2023-01-29T01:51:50.703Z,-3.73
2023-01-29T01:54:23.824Z,-3.69
2023-01-29T01:56:55.859Z,-3.71
2023-01-29T01:59:23.844Z,-3.74
2023-01-29T02:01:53.965Z,-3.77
2023-01-29T02:04:42.511Z,-3.77
2023-01-29T02:07:32.603Z,-3.82
2023-01-29T02:10:16.880Z,-3.85
2023-01-29T02:12:45.753Z,-3.85
2023-01-29T02:15:13.267Z,-3.88
2023-01-29T02:17:40.015Z,-3.90
2023-01-29T02:20:15.968Z,-3.84
2023-01-29T02:22:56.071Z,-3.76
2023-01-29T02:25:50.664Z,-3.70
2023-01-29T02:28:43.251Z,-3.68
2023-01-29T02:31:35.485Z,-3.74
2023-01-29T02:34:51.730Z,-3.86
2023-01-29T02:37:25.663Z,-3.81
2023-01-29T02:39:57.192Z,-3.62
2023-01-29T02:42:39.164Z,-3.72
2023-01-29T02:45:12.291Z,-3.84
2023-01-29T02:48:05.574Z,-3.86
2023-01-29T02:50:45.390Z,-3.84
2023-01-29T02:53:41.127Z,-3.92
2023-01-29T02:56:15.639Z,-4.12
2023-01-29T02:58:46.000Z,-4.07
2023-01-29T03:01:18.798Z,-4.17
2023-01-29T03:03:50.160Z,-4.26
2023-01-29T03:06:46.475Z,-4.19
2023-01-29T03:09:21.932Z,-4.11
2023-01-29T03:11:58.665Z,-4.17
2023-01-29T03:14:52.916Z,-4.15
2023-01-29T03:17:25.426Z,-4.21
2023-01-29T03:19:52.471Z,-4.26
2023-01-29T03:22:23.158Z,-4.22
2023-01-29T03:25:15.614Z,-4.30
2023-01-29T03:28:09.519Z,-4.33
2023-01-29T03:31:09.357Z,-4.41
2023-01-29T03:33:44.297Z,-4.39
2023-01-29T03:36:18.583Z,-4.45
2023-01-29T03:38:48.995Z,-4.43
2023-01-29T03:41:28.687Z,-4.37
2023-01-29T03:44:02.425Z,-4.33
2023-01-29T03:46:34.638Z,-4.32
2023-01-29T03:49:15.942Z,-4.19
2023-01-29T03:51:48.432Z,-4.03
2023-01-29T03:54:44.256Z,-3.92
2023-01-29T03:57:27.151Z,-3.98
2023-01-29T04:00:02.148Z,-3.77
2023-01-29T04:02:35.705Z,-3.44
2023-01-29T04:05:10.953Z,-3.30
2023-01-29T04:07:40.543Z,-3.35
2023-01-29T04:10:17.101Z,-3.45
2023-01-29T04:12:53.718Z,-3.80
2023-01-29T04:15:23.128Z,-4.11
2023-01-29T04:17:52.722Z,-4.23
2023-01-29T04:20:20.797Z,-4.00
2023-01-29T04:22:50.355Z,-3.77
2023-01-29T04:25:26.858Z,-3.89
2023-01-29T04:28:05.779Z,-3.88
2023-01-29T04:30:56.552Z,-4.00
2023-01-29T04:33:40.343Z,-4.18
2023-01-29T04:36:20.738Z,-4.06
2023-01-29T04:39:17.990Z,-3.89
2023-01-29T04:41:54.421Z,-3.86
2023-01-29T04:44:24.459Z,-3.72
2023-01-29T04:47:20.155Z,-3.52
2023-01-29T04:49:58.977Z,-3.53
2023-01-29T04:52:46.967Z,-3.48
2023-01-29T04:55:35.973Z,-3.60
2023-01-29T04:58:12.655Z,-3.51
2023-01-29T05:00:44.357Z,-3.38
2023-01-29T05:03:13.348Z,-3.15
2023-01-29T05:05:42.951Z,-3.31
2023-01-29T05:08:13.449Z,-3.26
2023-01-29T05:10:40.145Z,-3.29
2023-01-29T05:13:11.591Z,-3.34
2023-01-29T05:15:41.838Z,-3.28
2023-01-29T05:18:09.028Z,-3.34
2023-01-29T05:20:39.124Z,-3.35
2023-01-29T05:23:18.623Z,-3.22
2023-01-29T05:25:46.351Z,-3.02
2023-01-29T05:28:17.190Z,-2.96
2023-01-29T05:30:46.478Z,-2.91
2023-01-29T05:33:19.068Z,-2.96
2023-01-29T05:35:46.564Z,-2.89
2023-01-29T05:38:13.351Z,-2.80
2023-01-29T05:40:40.221Z,-2.80
2023-01-29T05:43:15.381Z,-2.82
2023-01-29T05:45:42.155Z,-2.68
2023-01-29T05:48:09.185Z,-2.82
2023-01-29T05:50:35.664Z,-2.83
2023-01-29T05:53:02.411Z,-2.53
2023-01-29T05:55:31.958Z,-2.74
2023-01-29T05:57:58.683Z,-2.89
2023-01-29T06:00:25.594Z,-2.74
2023-01-29T06:02:52.785Z,-2.80
2023-01-29T06:05:19.267Z,-2.75
2023-01-29T06:07:46.961Z,-2.72
2023-01-29T06:10:15.649Z,-2.74
2023-01-29T06:12:43.584Z,-2.69
2023-01-29T06:15:11.159Z,-2.72
2023-01-29T06:17:37.804Z,-2.72
2023-01-29T06:20:05.378Z,-2.60
2023-01-29T06:22:33.091Z,-2.71
2023-01-29T06:24:59.975Z,-2.77
2023-01-29T06:27:26.678Z,-2.76
2023-01-29T06:29:53.390Z,-2.61
2023-01-29T06:32:19.995Z,-2.63
2023-01-29T06:34:48.716Z,-2.59
2023-01-29T06:37:16.392Z,-2.56
2023-01-29T06:39:42.822Z,-2.56
2023-01-29T06:42:09.980Z,-2.55
2023-01-29T06:44:36.901Z,-2.62
2023-01-29T06:47:03.834Z,-2.55
2023-01-29T06:49:30.998Z,-2.52
2023-01-29T06:51:57.727Z,-2.64
2023-01-29T06:54:26.209Z,-2.72
2023-01-29T06:56:53.307Z,-2.67
2023-01-29T06:59:20.078Z,-2.61
2023-01-29T07:01:46.768Z,-2.67
2023-01-29T07:04:13.676Z,-2.70
2023-01-29T07:06:40.156Z,-2.72
2023-01-29T07:09:07.002Z,-2.72
2023-01-29T07:11:37.855Z,-2.67
2023-01-29T07:14:04.494Z,-2.59
2023-01-29T07:16:31.371Z,-2.56
2023-01-29T07:18:58.174Z,-2.49
2023-01-29T07:21:25.060Z,-2.39
2023-01-29T07:23:51.526Z,-2.41
2023-01-29T07:26:18.717Z,-2.45
2023-01-29T07:28:45.088Z,-2.48
2023-01-29T07:31:13.864Z,-2.45
2023-01-29T07:33:43.795Z,-2.62
2023-01-29T07:36:11.570Z,-2.62
2023-01-29T07:38:38.126Z,-2.51
2023-01-29T07:41:04.861Z,-2.44
2023-01-29T07:43:31.487Z,-2.41
2023-01-29T07:46:02.380Z,-2.58
2023-01-29T07:48:28.986Z,-2.57
2023-01-29T07:50:57.403Z,-2.83
2023-01-29T07:53:23.969Z,-2.89
2023-01-29T07:55:51.468Z,-2.68
2023-01-29T07:58:18.366Z,-2.63
2023-01-29T08:00:45.211Z,-2.42
2023-01-29T08:03:17.575Z,-2.09
2023-01-29T08:05:44.811Z,-1.94
2023-01-29T08:08:11.470Z,-1.89
2023-01-29T08:10:39.516Z,-1.90
2023-01-29T08:13:07.340Z,-1.96
2023-01-29T08:15:37.086Z,-1.83
2023-01-29T08:18:04.778Z,-1.86
2023-01-29T08:20:31.461Z,-1.77
2023-01-29T08:23:02.759Z,-1.69
2023-01-29T08:25:29.452Z,-1.73
2023-01-29T08:27:57.909Z,-1.69
2023-01-29T08:30:30.245Z,-1.63
2023-01-29T08:32:57.130Z,-1.56
2023-01-29T08:35:24.442Z,-1.50
2023-01-29T08:37:54.566Z,-1.27
2023-01-29T08:40:21.527Z,-1.20
2023-01-29T08:42:48.115Z,-1.18
2023-01-29T08:45:14.680Z,-1.30
2023-01-29T08:47:49.049Z,-1.18
2023-01-29T08:50:17.638Z,-1.17
2023-01-29T08:52:45.689Z,-1.02
2023-01-29T08:55:12.307Z,-1.01
2023-01-29T08:57:39.400Z,-1.03
2023-01-29T09:00:07.696Z,-0.99
2023-01-29T09:02:34.971Z,-0.87
2023-01-29T09:05:01.499Z,-1.02
2023-01-29T09:07:29.250Z,-0.88
2023-01-29T09:09:55.875Z,-0.71
2023-01-29T09:12:22.547Z,-0.79
2023-01-29T09:14:49.237Z,-0.90
2023-01-29T09:17:15.853Z,-1.02
2023-01-29T09:19:42.305Z,-0.89
2023-01-29T09:22:10.943Z,-0.99
2023-01-29T09:24:38.307Z,-1.20
2023-01-29T09:27:06.023Z,-1.17
2023-01-29T09:29:35.431Z,-1.14
2023-01-29T09:32:04.581Z,-1.01
2023-01-29T09:34:31.173Z,-0.91
2023-01-29T09:36:58.373Z,-0.70
2023-01-29T09:39:25.475Z,-0.64
2023-01-29T09:41:58.392Z,-0.62
2023-01-29T09:44:43.545Z,-0.36
2023-01-29T09:47:13.772Z,-0.06
2023-01-29T09:49:45.832Z,0.21
2023-01-29T09:52:20.262Z,0.60
2023-01-29T09:55:05.972Z,0.60
2023-01-29T09:57:54.143Z,0.34
2023-01-29T10:00:37.405Z,0.43
2023-01-29T10:03:32.017Z,1.10
2023-01-29T10:06:08.040Z,1.07
2023-01-29T10:08:47.033Z,0.80
2023-01-29T10:11:26.927Z,1.08
2023-01-29T10:14:22.704Z,1.24
2023-01-29T10:17:07.449Z,0.94
2023-01-29T10:19:52.626Z,0.82
2023-01-29T10:22:39.624Z,0.87
2023-01-29T10:25:11.445Z,0.37
2023-01-29T10:27:41.159Z,0.29
2023-01-29T10:30:20.385Z,0.14
2023-01-29T10:32:49.206Z,0.08
2023-01-29T10:35:34.291Z,0.57
2023-01-29T10:38:18.620Z,0.21
2023-01-29T10:40:55.647Z,0.42
2023-01-29T10:43:37.257Z,0.49
2023-01-29T10:46:18.129Z,0.73
2023-01-29T10:48:57.209Z,0.54
2023-01-29T10:51:35.904Z,0.43
2023-01-29T10:54:19.607Z,0.29
2023-01-29T10:56:55.903Z,0.23
2023-01-29T10:59:48.833Z,0.47
2023-01-29T11:02:18.550Z,0.43
2023-01-29T11:04:45.753Z,0.76
2023-01-29T11:07:14.704Z,1.01
2023-01-29T11:09:56.255Z,1.27
2023-01-29T11:12:30.308Z,1.74
2023-01-29T11:15:04.929Z,2.13
2023-01-29T11:17:31.532Z,2.08
2023-01-29T11:19:58.559Z,2.63
2023-01-29T11:22:27.443Z,2.31
2023-01-29T11:25:21.831Z,2.25
2023-01-29T11:28:02.873Z,2.32
2023-01-29T11:30:37.310Z,2.12
2023-01-29T11:33:23.637Z,2.96
2023-01-29T11:35:52.441Z,2.97
2023-01-29T11:38:25.704Z,2.71
2023-01-29T11:40:53.274Z,2.41
2023-01-29T11:43:22.530Z,3.25
2023-01-29T11:45:56.003Z,2.75
2023-01-29T11:48:32.172Z,2.95
2023-01-29T11:51:00.692Z,3.13
2023-01-29T11:53:36.977Z,3.98
2023-01-29T11:56:06.930Z,4.94
2023-01-29T11:58:35.799Z,5.70
2023-01-29T12:01:03.783Z,5.46
2023-01-29T12:03:40.109Z,4.64
2023-01-29T12:06:21.493Z,4.96
2023-01-29T12:08:58.742Z,4.71
2023-01-29T12:11:31.748Z,4.27
2023-01-29T12:14:01.020Z,4.00
2023-01-29T12:16:38.137Z,4.60
2023-01-29T12:19:38.229Z,5.58
2023-01-29T12:22:28.663Z,5.49
2023-01-29T12:24:55.119Z,4.90
2023-01-29T12:27:46.408Z,4.96
2023-01-29T12:30:21.608Z,4.57
2023-01-29T12:32:56.504Z,4.00
2023-01-29T12:35:28.432Z,4.07
2023-01-29T12:38:02.493Z,3.98
2023-01-29T12:40:38.559Z,3.32
2023-01-29T12:43:15.246Z,3.18
2023-01-29T12:45:47.996Z,3.13
2023-01-29T12:51:38.669Z,2.43
2023-01-29T12:54:12.555Z,2.83
2023-01-29T12:56:47.012Z,3.07
2023-01-29T12:59:36.339Z,3.04
2023-01-29T13:02:20.518Z,2.90
2023-01-29T13:05:03.904Z,2.87
2023-01-29T13:07:36.011Z,2.79
2023-01-29T13:10:13.734Z,2.26
2023-01-29T13:12:51.707Z,2.67
2023-01-29T13:15:31.240Z,3.20
2023-01-29T13:18:30.781Z,3.31
2023-01-29T13:21:00.180Z,2.79
2023-01-29T13:23:36.233Z,3.20
2023-01-29T13:26:03.785Z,3.14
2023-01-29T13:28:30.573Z,3.11
2023-01-29T13:31:35.834Z,2.68
2023-01-29T13:34:31.514Z,2.36
2023-01-29T13:37:00.988Z,2.50
2023-01-29T13:39:34.367Z,2.83
2023-01-29T13:42:14.701Z,2.94
2023-01-29T13:44:41.446Z,2.83
2023-01-29T13:47:11.232Z,2.85
2023-01-29T13:49:59.507Z,3.00
2023-01-29T13:52:37.143Z,3.23
2023-01-29T13:55:15.220Z,3.15
2023-01-29T13:57:48.726Z,3.22
2023-01-29T14:00:21.188Z,3.17
2023-01-29T14:03:13.547Z,3.25
2023-01-29T14:05:58.425Z,2.81
2023-01-29T14:08:34.171Z,2.86
2023-01-29T14:11:16.914Z,2.86
2023-01-29T14:13:47.069Z,2.62
2023-01-29T14:16:13.524Z,2.47
2023-01-29T14:18:47.876Z,2.46
2023-01-29T14:21:14.380Z,2.50
2023-01-29T14:23:49.753Z,2.29
2023-01-29T14:26:32.243Z,2.54
2023-01-29T14:29:18.772Z,2.62
2023-01-29T14:32:21.256Z,2.78
2023-01-29T14:34:50.810Z,2.70
2023-01-29T14:37:28.178Z,2.61
2023-01-29T14:39:58.219Z,2.74
2023-01-29T14:42:29.579Z,2.76
2023-01-29T14:45:25.995Z,2.57
2023-01-29T14:48:02.217Z,2.60
2023-01-29T14:50:28.874Z,2.46
2023-01-29T14:53:19.591Z,2.58
2023-01-29T14:56:12.426Z,2.80
2023-01-29T14:58:51.881Z,2.88
2023-01-29T15:01:26.728Z,2.87
2023-01-29T15:04:02.586Z,2.88
2023-01-29T15:06:41.323Z,2.53
2023-01-29T15:09:36.388Z,2.45
2023-01-29T15:12:23.030Z,2.33
2023-01-29T15:15:01.849Z,2.21
2023-01-29T15:17:32.812Z,2.25
2023-01-29T15:19:59.554Z,2.15
2023-01-29T15:22:28.947Z,2.20
2023-01-29T15:25:07.308Z,2.08
2023-01-29T15:27:34.247Z,1.77
2023-01-29T15:30:04.381Z,1.56
2023-01-29T15:32:37.228Z,1.70
2023-01-29T15:35:19.815Z,1.66
2023-01-29T15:37:59.122Z,1.69
2023-01-29T15:40:26.889Z,1.61
2023-01-29T15:42:53.869Z,1.62
2023-01-29T15:45:32.219Z,1.68
2023-01-29T15:48:13.828Z,1.62
2023-01-29T15:50:42.288Z,1.55
2023-01-29T15:53:15.852Z,1.58
2023-01-29T15:55:43.634Z,1.53
2023-01-29T15:58:18.807Z,1.47
2023-01-29T16:00:55.512Z,1.54
2023-01-29T16:03:25.474Z,1.40
2023-01-29T16:05:52.642Z,1.33
2023-01-29T16:08:21.818Z,1.32
2023-01-29T16:10:53.617Z,1.33
2023-01-29T16:13:25.731Z,1.57
2023-01-29T16:16:07.504Z,1.35
2023-01-29T16:18:42.825Z,1.39
2023-01-29T16:21:17.253Z,1.40
2023-01-29T16:23:49.812Z,1.40
2023-01-29T16:26:21.662Z,1.35
2023-01-29T16:28:48.386Z,1.59
2023-01-29T16:31:23.669Z,1.42
2023-01-29T16:33:50.388Z,1.42
2023-01-29T16:36:21.676Z,1.44
2023-01-29T16:39:00.977Z,1.34
2023-01-29T16:41:33.146Z,1.39
2023-01-29T16:44:12.939Z,1.31
2023-01-29T16:46:48.008Z,1.37
2023-01-29T16:49:40.434Z,1.32
2023-01-29T16:52:19.291Z,1.17
2023-01-29T16:54:46.713Z,1.09
2023-01-29T16:57:18.141Z,1.01
2023-01-29T16:59:45.891Z,0.95
2023-01-29T17:02:23.096Z,0.97
2023-01-29T17:04:52.446Z,0.91
2023-01-29T17:07:22.317Z,0.98
2023-01-29T17:09:54.056Z,1.01
2023-01-29T17:12:26.396Z,0.95
2023-01-29T17:15:05.888Z,0.90
2023-01-29T17:17:35.748Z,1.03
2023-01-29T17:20:16.484Z,1.00
2023-01-29T17:22:44.688Z,0.85
2023-01-29T17:25:14.199Z,0.77
2023-01-29T17:27:45.199Z,0.66
2023-01-29T17:30:16.562Z,0.72
2023-01-29T17:32:47.347Z,0.75
2023-01-29T17:35:17.026Z,0.78
2023-01-29T17:37:44.959Z,0.63
2023-01-29T17:40:47.360Z,0.67
2023-01-29T17:43:13.903Z,0.69
2023-01-29T17:45:40.717Z,0.62
2023-01-29T17:48:15.361Z,0.74
2023-01-29T17:50:48.325Z,0.61
2023-01-29T17:53:17.859Z,0.68
2023-01-29T17:55:45.022Z,0.66
2023-01-29T17:58:19.292Z,0.75
2023-01-29T18:00:46.825Z,0.72
2023-01-29T18:03:13.487Z,0.67
2023-01-29T18:05:42.429Z,0.74
2023-01-29T18:08:22.190Z,0.67
2023-01-29T18:10:48.669Z,0.54
2023-01-29T18:13:15.353Z,0.62
2023-01-29T18:15:43.074Z,0.63
2023-01-29T18:18:14.034Z,0.52
2023-01-29T18:20:40.642Z,0.67
2023-01-29T18:23:08.376Z,0.70
2023-01-29T18:25:35.241Z,0.75
2023-01-29T18:28:02.460Z,0.63
2023-01-29T18:30:31.505Z,0.59
2023-01-29T18:32:58.093Z,0.70
2023-01-29T18:35:27.159Z,0.66
2023-01-29T18:37:54.032Z,0.63
2023-01-29T18:40:20.795Z,0.61
2023-01-29T18:42:47.470Z,0.74
2023-01-29T18:45:15.247Z,0.81
2023-01-29T18:47:42.671Z,0.80
2023-01-29T18:50:11.676Z,0.63
2023-01-29T18:52:38.853Z,0.67
2023-01-29T18:55:06.143Z,0.79
2023-01-29T18:58:31.048Z,0.75
2023-01-29T19:00:20.511Z,0.70
2023-01-29T19:02:46.921Z,0.72
2023-01-29T19:05:13.389Z,0.62
2023-01-29T19:07:41.262Z,0.77
2023-01-29T19:10:12.406Z,0.74
2023-01-29T19:12:42.210Z,0.76
2023-01-29T19:15:09.733Z,0.75
2023-01-29T19:17:37.938Z,0.77
2023-01-29T19:20:04.723Z,0.70
2023-01-29T19:22:32.320Z,0.62
2023-01-29T19:24:59.094Z,0.65
2023-01-29T19:27:30.144Z,0.74
2023-01-29T19:29:58.079Z,0.85
2023-01-29T19:32:24.669Z,0.82
2023-01-29T19:34:52.161Z,0.79
2023-01-29T19:37:18.575Z,0.82
2023-01-29T19:39:45.075Z,0.86
2023-01-29T19:42:11.530Z,0.84
2023-01-29T19:44:56.273Z,0.77
2023-01-29T19:47:23.158Z,0.76
2023-01-29T19:49:50.595Z,0.77
2023-01-29T19:52:51.254Z,0.81
2023-01-29T19:55:19.948Z,0.76
2023-01-29T19:57:47.432Z,0.86
2023-01-29T20:00:15.467Z,0.82
2023-01-29T20:02:42.508Z,0.77
2023-01-29T20:05:11.949Z,0.72
2023-01-29T20:07:42.383Z,0.71
2023-01-29T20:10:16.839Z,0.73
2023-01-29T20:12:45.735Z,0.79
2023-01-29T20:15:13.944Z,0.81
2023-01-29T20:17:40.520Z,0.77
2023-01-29T20:20:08.444Z,0.75
2023-01-29T20:22:35.924Z,0.74
2023-01-29T20:25:02.532Z,0.80
2023-01-29T20:27:29.221Z,0.79
2023-01-29T20:29:55.899Z,0.88
2023-01-29T20:32:22.616Z,0.85
2023-01-29T20:34:51.930Z,0.90
2023-01-29T20:37:19.852Z,0.90
2023-01-29T20:39:47.274Z,0.92
2023-01-29T20:42:14.202Z,0.90
2023-01-29T20:44:41.195Z,0.91
2023-01-29T20:47:08.373Z,0.90
2023-01-29T20:49:35.443Z,0.93
2023-01-29T20:52:01.952Z,0.93
2023-01-29T20:54:29.845Z,0.89
2023-01-29T20:56:57.119Z,0.91
2023-01-29T20:59:24.103Z,0.90
2023-01-29T21:01:50.848Z,0.99
2023-01-29T21:04:17.449Z,1.01
2023-01-29T21:06:44.248Z,1.03
2023-01-29T21:09:10.814Z,1.12
2023-01-29T21:11:37.326Z,1.02
2023-01-29T21:14:04.371Z,1.02
2023-01-29T21:16:32.224Z,1.06
2023-01-29T21:18:59.718Z,1.03
2023-01-29T21:21:26.883Z,1.00
2023-01-29T21:23:53.533Z,1.04
2023-01-29T21:26:20.615Z,1.03
2023-01-29T21:28:47.108Z,1.13
2023-01-29T21:31:16.149Z,1.12
2023-01-29T21:33:44.330Z,1.15
2023-01-29T21:36:11.757Z,1.25
2023-01-29T21:38:38.823Z,1.20
2023-01-29T21:41:08.602Z,1.17
2023-01-29T21:43:35.572Z,1.14
2023-01-29T21:46:11.402Z,1.21
2023-01-29T21:48:39.281Z,1.24
2023-01-29T21:51:06.778Z,1.16
2023-01-29T21:53:33.802Z,1.23
2023-01-29T21:56:01.204Z,1.31
2023-01-29T21:58:28.270Z,1.23
2023-01-29T22:00:54.725Z,1.21
2023-01-29T22:03:21.565Z,1.27
2023-01-29T22:05:49.952Z,1.28
2023-01-29T22:08:17.779Z,1.25
2023-01-29T22:10:44.294Z,1.23
2023-01-29T22:13:11.263Z,1.29
2023-01-29T22:15:38.217Z,1.44
2023-01-29T22:18:04.906Z,1.30
2023-01-29T22:20:31.569Z,1.46
2023-01-29T22:23:00.151Z,1.53
2023-01-29T22:25:27.518Z,1.48
2023-01-29T22:27:54.376Z,1.37
2023-01-29T22:30:23.102Z,1.50
2023-01-29T22:32:50.424Z,1.58
2023-01-29T22:35:17.401Z,1.68
2023-01-29T22:37:44.990Z,1.62
2023-01-29T22:40:11.845Z,1.63
2023-01-29T22:42:38.574Z,1.62
2023-01-29T22:45:05.785Z,1.66
2023-01-29T22:47:33.564Z,1.69
2023-01-29T22:50:00.361Z,1.73
2023-01-29T22:52:27.860Z,1.79
2023-01-29T22:54:54.283Z,1.81
2023-01-29T22:57:20.860Z,1.88
2023-01-29T22:59:47.499Z,1.89
2023-01-29T23:02:14.209Z,1.78
2023-01-29T23:04:41.468Z,1.79
2023-01-29T23:07:07.940Z,1.81
2023-01-29T23:09:34.517Z,1.81
2023-01-29T23:12:01.308Z,1.86
2023-01-29T23:14:28.158Z,1.89
2023-01-29T23:16:55.129Z,1.94
2023-01-29T23:19:21.832Z,1.96
2023-01-29T23:21:48.548Z,1.94
2023-01-29T23:24:15.581Z,1.96
2023-01-29T23:27:00.817Z,2.01
2023-01-29T23:29:27.588Z,2.05
2023-01-29T23:31:54.195Z,2.00
2023-01-29T23:34:22.055Z,1.92
2023-01-29T23:36:48.581Z,1.97
2023-01-29T23:39:15.393Z,1.90
2023-01-29T23:41:42.039Z,2.17
2023-01-29T23:44:08.515Z,2.00
2023-01-29T23:46:35.352Z,2.14
2023-01-29T23:49:01.989Z,1.96
2023-01-29T23:51:29.012Z,2.14
2023-01-29T23:53:56.343Z,1.99
2023-01-29T23:56:23.048Z,2.20
2023-01-29T23:58:54.765Z,2.11
